sensor_id;sensor_type;location;lat;lon;timestamp;temperature;humidity
14604;DHT22;7388;51.078;13.740;2022-12-29T16:26:36;16.10;34.80
14604;DHT22;7388;51.078;13.740;2022-12-29T16:29:05;16.10;34.90
14604;DHT22;7388;51.078;13.740;2022-12-29T16:31:53;15.90;35.20
14604;DHT22;7388;51.078;13.740;2022-12-29T16:34:32;15.80;35.60
14604;DHT22;7388;51.078;13.740;2022-12-29T16:36:59;15.80;35.60
14604;DHT22;7388;51.078;13.740;2022-12-29T16:39:35;15.80;35.40
14604;DHT22;7388;51.078;13.740;2022-12-29T16:42:19;16.00;35.20
14604;DHT22;7388;51.078;13.740;2022-12-29T16:44:46;15.90;35.10
14604;DHT22;7388;51.078;13.740;2022-12-29T16:49:45;15.90;35.00
14604;DHT22;7388;51.078;13.740;2022-12-29T16:52:25;16.00;35.00
14604;DHT22;7388;51.078;13.740;2022-12-29T16:54:56;16.00;34.80
14604;DHT22;7388;51.078;13.740;2022-12-29T16:57:28;16.00;34.80
14604;DHT22;7388;51.078;13.740;2022-12-29T16:59:58;16.00;34.80
14604;DHT22;7388;51.078;13.740;2022-12-29T17:02:28;16.00;34.90
14604;DHT22;7388;51.078;13.740;2022-12-29T17:04:54;16.00;34.90
14604;DHT22;7388;51.078;13.740;2022-12-29T17:07:24;16.10;34.80
14604;DHT22;7388;51.078;13.740;2022-12-29T17:09:51;16.10;35.30
14604;DHT22;7388;51.078;13.740;2022-12-29T17:12:24;16.00;34.60
14604;DHT22;7388;51.078;13.740;2022-12-29T17:14:58;15.90;34.70
14604;DHT22;7388;51.078;13.740;2022-12-29T17:17:32;15.80;35.00
14604;DHT22;7388;51.078;13.740;2022-12-29T17:20:05;15.80;35.00
14604;DHT22;7388;51.078;13.740;2022-12-29T17:22:32;15.80;35.00
14604;DHT22;7388;51.078;13.740;2022-12-29T17:24:59;15.70;35.10
14604;DHT22;7388;51.078;13.740;2022-12-29T17:30:12;15.80;35.10
14604;DHT22;7388;51.078;13.740;2022-12-29T17:32:42;15.70;35.30
14604;DHT22;7388;51.078;13.740;2022-12-29T17:35:13;15.60;35.50
14604;DHT22;7388;51.078;13.740;2022-12-29T17:37:40;15.50;35.80
14604;DHT22;7388;51.078;13.740;2022-12-29T17:40:09;15.50;35.80
14604;DHT22;7388;51.078;13.740;2022-12-29T17:42:39;15.50;35.90
14604;DHT22;7388;51.078;13.740;2022-12-29T17:45:15;15.40;36.00
14604;DHT22;7388;51.078;13.740;2022-12-29T17:47:42;15.30;36.30
14604;DHT22;7388;51.078;13.740;2022-12-29T17:50:14;15.20;36.50
14604;DHT22;7388;51.078;13.740;2022-12-29T17:52:42;15.20;36.50
14604;DHT22;7388;51.078;13.740;2022-12-29T17:55:18;15.20;36.70
14604;DHT22;7388;51.078;13.740;2022-12-29T17:57:44;15.20;36.70
14604;DHT22;7388;51.078;13.740;2022-12-29T18:00:28;15.20;36.80
14604;DHT22;7388;51.078;13.740;2022-12-29T18:02:56;15.20;36.80
14604;DHT22;7388;51.078;13.740;2022-12-29T18:05:24;15.10;36.90
14604;DHT22;7388;51.078;13.740;2022-12-29T18:07:52;15.10;37.30
14604;DHT22;7388;51.078;13.740;2022-12-29T18:10:20;15.10;37.00
14604;DHT22;7388;51.078;13.740;2022-12-29T18:12:47;15.10;36.90
14604;DHT22;7388;51.078;13.740;2022-12-29T18:15:27;15.20;37.00
14604;DHT22;7388;51.078;13.740;2022-12-29T18:17:59;15.10;37.30
14604;DHT22;7388;51.078;13.740;2022-12-29T18:20:27;15.10;37.30
14604;DHT22;7388;51.078;13.740;2022-12-29T18:22:53;15.00;37.50
14604;DHT22;7388;51.078;13.740;2022-12-29T18:25:29;15.00;37.70
14604;DHT22;7388;51.078;13.740;2022-12-29T18:28:01;15.10;37.70
14604;DHT22;7388;51.078;13.740;2022-12-29T18:30:26;15.10;38.10
14604;DHT22;7388;51.078;13.740;2022-12-29T18:32:52;15.10;37.70
14604;DHT22;7388;51.078;13.740;2022-12-29T18:35:25;15.10;37.50
14604;DHT22;7388;51.078;13.740;2022-12-29T18:37:52;15.10;37.50
14604;DHT22;7388;51.078;13.740;2022-12-29T18:40:18;15.10;37.30
14604;DHT22;7388;51.078;13.740;2022-12-29T18:42:44;15.20;37.20
14604;DHT22;7388;51.078;13.740;2022-12-29T18:45:21;15.20;37.10
14604;DHT22;7388;51.078;13.740;2022-12-29T18:47:48;15.20;37.40
14604;DHT22;7388;51.078;13.740;2022-12-29T18:50:14;15.20;37.20
14604;DHT22;7388;51.078;13.740;2022-12-29T18:52:40;15.20;37.20
14604;DHT22;7388;51.078;13.740;2022-12-29T18:55:12;15.20;37.30
14604;DHT22;7388;51.078;13.740;2022-12-29T18:57:38;15.10;37.70
14604;DHT22;7388;51.078;13.740;2022-12-29T19:00:04;15.10;37.80
14604;DHT22;7388;51.078;13.740;2022-12-29T19:02:30;15.10;37.80
14604;DHT22;7388;51.078;13.740;2022-12-29T19:04:57;15.10;38.10
14604;DHT22;7388;51.078;13.740;2022-12-29T19:07:24;15.00;38.10
14604;DHT22;7388;51.078;13.740;2022-12-29T19:09:51;15.10;38.10
14604;DHT22;7388;51.078;13.740;2022-12-29T19:12:16;15.00;38.00
14604;DHT22;7388;51.078;13.740;2022-12-29T19:14:43;15.10;37.90
14604;DHT22;7388;51.078;13.740;2022-12-29T19:17:12;15.10;37.80
14604;DHT22;7388;51.078;13.740;2022-12-29T19:19:41;15.10;37.90
14604;DHT22;7388;51.078;13.740;2022-12-29T19:22:08;15.10;37.90
14604;DHT22;7388;51.078;13.740;2022-12-29T19:24:34;15.10;37.80
14604;DHT22;7388;51.078;13.740;2022-12-29T19:26:59;15.20;37.70
14604;DHT22;7388;51.078;13.740;2022-12-29T19:29:25;15.20;37.60
14604;DHT22;7388;51.078;13.740;2022-12-29T19:31:51;15.20;37.40
14604;DHT22;7388;51.078;13.740;2022-12-29T19:34:17;15.20;37.40
14604;DHT22;7388;51.078;13.740;2022-12-29T19:36:44;15.20;37.30
14604;DHT22;7388;51.078;13.740;2022-12-29T19:39:11;15.20;37.30
14604;DHT22;7388;51.078;13.740;2022-12-29T19:41:36;15.20;37.30
14604;DHT22;7388;51.078;13.740;2022-12-29T19:44:02;15.20;37.20
14604;DHT22;7388;51.078;13.740;2022-12-29T19:46:28;15.20;37.30
14604;DHT22;7388;51.078;13.740;2022-12-29T19:48:55;15.10;37.30
14604;DHT22;7388;51.078;13.740;2022-12-29T19:51:23;15.10;37.30
14604;DHT22;7388;51.078;13.740;2022-12-29T19:53:49;15.10;37.30
14604;DHT22;7388;51.078;13.740;2022-12-29T19:56:16;15.10;37.50
14604;DHT22;7388;51.078;13.740;2022-12-29T19:58:42;15.00;37.40
14604;DHT22;7388;51.078;13.740;2022-12-29T20:01:17;15.00;37.50
14604;DHT22;7388;51.078;13.740;2022-12-29T20:03:44;14.90;37.50
14604;DHT22;7388;51.078;13.740;2022-12-29T20:06:11;15.00;37.70
14604;DHT22;7388;51.078;13.740;2022-12-29T20:08:37;14.90;37.70
14604;DHT22;7388;51.078;13.740;2022-12-29T20:11:13;14.90;37.70
14604;DHT22;7388;51.078;13.740;2022-12-29T20:13:39;14.80;37.70
14604;DHT22;7388;51.078;13.740;2022-12-29T20:16:08;14.80;37.80
14604;DHT22;7388;51.078;13.740;2022-12-29T20:18:35;14.80;37.70
14604;DHT22;7388;51.078;13.740;2022-12-29T20:21:06;14.80;37.70
14604;DHT22;7388;51.078;13.740;2022-12-29T20:23:33;14.80;37.70
14604;DHT22;7388;51.078;13.740;2022-12-29T20:26:00;14.70;37.60
14604;DHT22;7388;51.078;13.740;2022-12-29T20:28:27;14.70;37.70
14604;DHT22;7388;51.078;13.740;2022-12-29T20:31:05;14.60;37.60
14604;DHT22;7388;51.078;13.740;2022-12-29T20:33:34;14.60;37.60
14604;DHT22;7388;51.078;13.740;2022-12-29T20:36:12;14.60;37.70
14604;DHT22;7388;51.078;13.740;2022-12-29T20:38:40;14.50;37.70
14604;DHT22;7388;51.078;13.740;2022-12-29T20:41:06;14.50;37.80
14604;DHT22;7388;51.078;13.740;2022-12-29T20:43:32;14.40;37.90
14604;DHT22;7388;51.078;13.740;2022-12-29T20:45:59;14.20;38.10
14604;DHT22;7388;51.078;13.740;2022-12-29T20:48:25;14.20;38.20
14604;DHT22;7388;51.078;13.740;2022-12-29T20:50:51;14.20;38.20
14604;DHT22;7388;51.078;13.740;2022-12-29T20:53:16;14.10;38.20
14604;DHT22;7388;51.078;13.740;2022-12-29T20:55:42;14.00;38.10
14604;DHT22;7388;51.078;13.740;2022-12-29T20:58:08;14.00;38.10
14604;DHT22;7388;51.078;13.740;2022-12-29T21:00:35;13.90;38.20
14604;DHT22;7388;51.078;13.740;2022-12-29T21:03:01;13.80;38.30
14604;DHT22;7388;51.078;13.740;2022-12-29T21:05:27;13.70;38.40
14604;DHT22;7388;51.078;13.740;2022-12-29T21:07:54;13.50;39.20
14604;DHT22;7388;51.078;13.740;2022-12-29T21:10:20;13.50;39.30
14604;DHT22;7388;51.078;13.740;2022-12-29T21:12:47;13.40;39.10
14604;DHT22;7388;51.078;13.740;2022-12-29T21:15:13;13.50;39.10
14604;DHT22;7388;51.078;13.740;2022-12-29T21:17:42;13.50;39.00
14604;DHT22;7388;51.078;13.740;2022-12-29T21:20:08;13.50;38.80
14604;DHT22;7388;51.078;13.740;2022-12-29T21:22:34;13.60;38.60
14604;DHT22;7388;51.078;13.740;2022-12-29T21:25:00;13.60;38.60
14604;DHT22;7388;51.078;13.740;2022-12-29T21:27:26;13.60;38.50
14604;DHT22;7388;51.078;13.740;2022-12-29T21:29:51;13.70;38.40
14604;DHT22;7388;51.078;13.740;2022-12-29T21:32:17;13.70;38.40
14604;DHT22;7388;51.078;13.740;2022-12-29T21:34:43;13.70;38.50
14604;DHT22;7388;51.078;13.740;2022-12-29T21:37:08;13.70;38.70
14604;DHT22;7388;51.078;13.740;2022-12-29T21:39:34;13.70;38.60
14604;DHT22;7388;51.078;13.740;2022-12-29T21:42:00;13.70;38.50
14604;DHT22;7388;51.078;13.740;2022-12-29T21:44:27;13.80;38.50
14604;DHT22;7388;51.078;13.740;2022-12-29T21:47:11;13.80;39.10
14604;DHT22;7388;51.078;13.740;2022-12-29T21:49:36;13.70;38.70
14604;DHT22;7388;51.078;13.740;2022-12-29T21:52:03;13.60;38.80
14604;DHT22;7388;51.078;13.740;2022-12-29T21:54:29;13.60;39.10
14604;DHT22;7388;51.078;13.740;2022-12-29T21:57:16;13.50;39.30
14604;DHT22;7388;51.078;13.740;2022-12-29T22:00:16;13.60;39.10
14604;DHT22;7388;51.078;13.740;2022-12-29T22:03:01;13.60;39.00
14604;DHT22;7388;51.078;13.740;2022-12-29T22:05:45;13.70;38.80
14604;DHT22;7388;51.078;13.740;2022-12-29T22:08:29;13.70;38.60
14604;DHT22;7388;51.078;13.740;2022-12-29T22:11:13;13.80;38.40
14604;DHT22;7388;51.078;13.740;2022-12-29T22:13:58;13.70;38.70
14604;DHT22;7388;51.078;13.740;2022-12-29T22:16:25;13.60;38.70
14604;DHT22;7388;51.078;13.740;2022-12-29T22:18:51;13.60;38.90
14604;DHT22;7388;51.078;13.740;2022-12-29T22:21:17;13.60;38.90
14604;DHT22;7388;51.078;13.740;2022-12-29T22:23:42;13.60;38.90
14604;DHT22;7388;51.078;13.740;2022-12-29T22:26:10;13.50;39.10
14604;DHT22;7388;51.078;13.740;2022-12-29T22:28:41;13.60;38.90
14604;DHT22;7388;51.078;13.740;2022-12-29T22:31:20;13.60;38.90
14604;DHT22;7388;51.078;13.740;2022-12-29T22:33:49;13.60;38.80
14604;DHT22;7388;51.078;13.740;2022-12-29T22:36:15;13.60;38.80
14604;DHT22;7388;51.078;13.740;2022-12-29T22:38:40;13.60;38.80
14604;DHT22;7388;51.078;13.740;2022-12-29T22:41:06;13.60;38.90
14604;DHT22;7388;51.078;13.740;2022-12-29T22:43:32;13.50;39.10
14604;DHT22;7388;51.078;13.740;2022-12-29T22:46:03;13.50;38.90
14604;DHT22;7388;51.078;13.740;2022-12-29T22:48:31;13.60;38.80
14604;DHT22;7388;51.078;13.740;2022-12-29T22:50:57;13.60;38.70
14604;DHT22;7388;51.078;13.740;2022-12-29T22:53:23;13.50;38.80
14604;DHT22;7388;51.078;13.740;2022-12-29T22:55:49;13.50;38.80
14604;DHT22;7388;51.078;13.740;2022-12-29T22:58:14;13.60;38.60
14604;DHT22;7388;51.078;13.740;2022-12-29T23:00:40;13.60;38.40
14604;DHT22;7388;51.078;13.740;2022-12-29T23:03:06;13.60;38.40
14604;DHT22;7388;51.078;13.740;2022-12-29T23:05:32;13.60;38.50
14604;DHT22;7388;51.078;13.740;2022-12-29T23:07:59;13.70;38.30
14604;DHT22;7388;51.078;13.740;2022-12-29T23:10:24;13.80;38.20
14604;DHT22;7388;51.078;13.740;2022-12-29T23:12:50;13.70;38.10
14604;DHT22;7388;51.078;13.740;2022-12-29T23:15:16;13.80;38.10
14604;DHT22;7388;51.078;13.740;2022-12-29T23:17:41;13.80;38.00
14604;DHT22;7388;51.078;13.740;2022-12-29T23:20:08;13.80;38.00
14604;DHT22;7388;51.078;13.740;2022-12-29T23:22:33;13.80;37.90
14604;DHT22;7388;51.078;13.740;2022-12-29T23:24:59;13.80;37.80
14604;DHT22;7388;51.078;13.740;2022-12-29T23:27:25;13.80;37.70
14604;DHT22;7388;51.078;13.740;2022-12-29T23:29:51;13.90;37.80
14604;DHT22;7388;51.078;13.740;2022-12-29T23:32:16;13.80;37.70
14604;DHT22;7388;51.078;13.740;2022-12-29T23:34:42;13.80;37.80
14604;DHT22;7388;51.078;13.740;2022-12-29T23:37:08;13.80;37.80
14604;DHT22;7388;51.078;13.740;2022-12-29T23:39:33;13.70;37.80
14604;DHT22;7388;51.078;13.740;2022-12-29T23:41:59;13.70;37.90
14604;DHT22;7388;51.078;13.740;2022-12-29T23:44:25;13.70;37.90
14604;DHT22;7388;51.078;13.740;2022-12-29T23:46:51;13.70;37.80
14604;DHT22;7388;51.078;13.740;2022-12-29T23:49:17;13.70;37.90
14604;DHT22;7388;51.078;13.740;2022-12-29T23:51:42;13.70;37.90
14604;DHT22;7388;51.078;13.740;2022-12-29T23:54:08;13.70;37.90
14604;DHT22;7388;51.078;13.740;2022-12-29T23:56:34;13.70;37.80
14604;DHT22;7388;51.078;13.740;2022-12-29T23:59:03;13.70;37.80
